sensor_id;sensor_type;location;lat;lon;timestamp;P1;durP1;ratioP1;P2;durP2;ratioP2
64799;SDS011;51233;51.982;4.594;2023-03-23T00:00:22;5.57;;;2.37;;
64799;SDS011;51233;51.982;4.594;2023-03-23T00:03:22;3.50;;;2.17;;
64799;SDS011;51233;51.982;4.594;2023-03-23T00:06:26;5.25;;;2.20;;
64799;SDS011;51233;51.982;4.594;2023-03-23T00:09:27;6.05;;;2.83;;
64799;SDS011;51233;51.982;4.594;2023-03-23T00:12:28;4.82;;;2.42;;
64799;SDS011;51233;51.982;4.594;2023-03-23T00:15:32;5.45;;;2.30;;
64799;SDS011;51233;51.982;4.594;2023-03-23T00:18:33;3.83;;;2.08;;
64799;SDS011;51233;51.982;4.594;2023-03-23T00:21:36;5.53;;;2.10;;
64799;SDS011;51233;51.982;4.594;2023-03-23T00:24:37;3.90;;;1.92;;
64799;SDS011;51233;51.982;4.594;2023-03-23T00:27:37;4.10;;;2.10;;
64799;SDS011;51233;51.982;4.594;2023-03-23T00:30:38;5.50;;;2.40;;
64799;SDS011;51233;51.982;4.594;2023-03-23T00:33:39;5.82;;;2.13;;
64799;SDS011;51233;51.982;4.594;2023-03-23T00:36:40;3.58;;;2.00;;
64799;SDS011;51233;51.982;4.594;2023-03-23T00:39:43;4.85;;;2.20;;
64799;SDS011;51233;51.982;4.594;2023-03-23T00:42:45;3.85;;;2.08;;
64799;SDS011;51233;51.982;4.594;2023-03-23T00:45:46;3.97;;;1.73;;
64799;SDS011;51233;51.982;4.594;2023-03-23T00:48:52;4.03;;;2.00;;
64799;SDS011;51233;51.982;4.594;2023-03-23T00:51:53;3.88;;;2.20;;
64799;SDS011;51233;51.982;4.594;2023-03-23T00:54:54;4.67;;;2.00;;
64799;SDS011;51233;51.982;4.594;2023-03-23T00:57:54;5.05;;;2.00;;
64799;SDS011;51233;51.982;4.594;2023-03-23T01:00:55;3.85;;;2.35;;
64799;SDS011;51233;51.982;4.594;2023-03-23T01:03:57;3.58;;;1.58;;
64799;SDS011;51233;51.982;4.594;2023-03-23T01:07:00;3.78;;;2.03;;
64799;SDS011;51233;51.982;4.594;2023-03-23T01:10:00;4.28;;;2.17;;
64799;SDS011;51233;51.982;4.594;2023-03-23T01:13:01;3.25;;;2.28;;
64799;SDS011;51233;51.982;4.594;2023-03-23T01:16:02;6.45;;;1.70;;
64799;SDS011;51233;51.982;4.594;2023-03-23T01:19:02;4.07;;;2.17;;
64799;SDS011;51233;51.982;4.594;2023-03-23T01:22:02;4.95;;;2.10;;
64799;SDS011;51233;51.982;4.594;2023-03-23T01:25:02;3.70;;;1.90;;
64799;SDS011;51233;51.982;4.594;2023-03-23T01:28:02;2.75;;;1.90;;
64799;SDS011;51233;51.982;4.594;2023-03-23T01:31:04;3.50;;;1.88;;
64799;SDS011;51233;51.982;4.594;2023-03-23T01:34:04;2.72;;;2.05;;
64799;SDS011;51233;51.982;4.594;2023-03-23T01:37:05;3.50;;;1.83;;
64799;SDS011;51233;51.982;4.594;2023-03-23T01:40:05;5.18;;;2.17;;
64799;SDS011;51233;51.982;4.594;2023-03-23T01:43:13;6.00;;;1.80;;
64799;SDS011;51233;51.982;4.594;2023-03-23T01:46:13;3.97;;;1.98;;
64799;SDS011;51233;51.982;4.594;2023-03-23T01:49:17;3.30;;;1.90;;
64799;SDS011;51233;51.982;4.594;2023-03-23T01:52:19;3.67;;;2.15;;
64799;SDS011;51233;51.982;4.594;2023-03-23T01:55:21;3.10;;;2.10;;
64799;SDS011;51233;51.982;4.594;2023-03-23T01:58:23;3.78;;;1.70;;
64799;SDS011;51233;51.982;4.594;2023-03-23T02:01:27;2.60;;;1.40;;
64799;SDS011;51233;51.982;4.594;2023-03-23T02:04:27;3.42;;;1.65;;
64799;SDS011;51233;51.982;4.594;2023-03-23T02:07:28;3.35;;;1.70;;
64799;SDS011;51233;51.982;4.594;2023-03-23T02:10:30;2.03;;;1.83;;
64799;SDS011;51233;51.982;4.594;2023-03-23T02:13:30;3.72;;;1.48;;
64799;SDS011;51233;51.982;4.594;2023-03-23T02:22:56;2.53;;;1.77;;
64799;SDS011;51233;51.982;4.594;2023-03-23T02:35:50;2.58;;;1.92;;
64799;SDS011;51233;51.982;4.594;2023-03-23T02:38:56;4.20;;;1.80;;
64799;SDS011;51233;51.982;4.594;2023-03-23T02:42:02;4.47;;;1.90;;
64799;SDS011;51233;51.982;4.594;2023-03-23T02:45:04;2.75;;;1.60;;
64799;SDS011;51233;51.982;4.594;2023-03-23T02:48:05;4.60;;;2.00;;
64799;SDS011;51233;51.982;4.594;2023-03-23T02:51:07;6.47;;;1.90;;
64799;SDS011;51233;51.982;4.594;2023-03-23T02:54:08;4.03;;;2.22;;
64799;SDS011;51233;51.982;4.594;2023-03-23T02:57:09;3.38;;;1.77;;
64799;SDS011;51233;51.982;4.594;2023-03-23T03:00:13;3.38;;;1.90;;
64799;SDS011;51233;51.982;4.594;2023-03-23T03:03:14;4.75;;;2.13;;
64799;SDS011;51233;51.982;4.594;2023-03-23T03:06:24;5.10;;;1.80;;
64799;SDS011;51233;51.982;4.594;2023-03-23T03:12:52;3.67;;;2.05;;
64799;SDS011;51233;51.982;4.594;2023-03-23T03:22:25;3.03;;;2.00;;
64799;SDS011;51233;51.982;4.594;2023-03-23T03:25:28;3.47;;;1.85;;
64799;SDS011;51233;51.982;4.594;2023-03-23T03:28:29;2.67;;;1.67;;
64799;SDS011;51233;51.982;4.594;2023-03-23T03:31:30;3.25;;;1.83;;
64799;SDS011;51233;51.982;4.594;2023-03-23T03:34:34;4.07;;;1.70;;
64799;SDS011;51233;51.982;4.594;2023-03-23T03:37:35;3.60;;;1.73;;
64799;SDS011;51233;51.982;4.594;2023-03-23T03:40:37;5.03;;;1.90;;
64799;SDS011;51233;51.982;4.594;2023-03-23T03:43:37;6.28;;;1.88;;
64799;SDS011;51233;51.982;4.594;2023-03-23T03:46:37;4.15;;;2.08;;
64799;SDS011;51233;51.982;4.594;2023-03-23T03:49:37;3.78;;;1.63;;
64799;SDS011;51233;51.982;4.594;2023-03-23T03:52:38;5.60;;;1.90;;
64799;SDS011;51233;51.982;4.594;2023-03-23T03:55:38;4.13;;;1.88;;
64799;SDS011;51233;51.982;4.594;2023-03-23T03:58:38;6.47;;;2.20;;
64799;SDS011;51233;51.982;4.594;2023-03-23T04:01:38;4.90;;;1.70;;
64799;SDS011;51233;51.982;4.594;2023-03-23T04:04:39;10.13;;;1.98;;
64799;SDS011;51233;51.982;4.594;2023-03-23T04:07:39;5.75;;;2.53;;
64799;SDS011;51233;51.982;4.594;2023-03-23T04:10:42;3.88;;;1.60;;
64799;SDS011;51233;51.982;4.594;2023-03-23T04:13:42;6.93;;;1.90;;
64799;SDS011;51233;51.982;4.594;2023-03-23T04:16:42;4.85;;;1.92;;
64799;SDS011;51233;51.982;4.594;2023-03-23T04:19:56;4.53;;;1.73;;
64799;SDS011;51233;51.982;4.594;2023-03-23T04:22:57;4.93;;;1.52;;
64799;SDS011;51233;51.982;4.594;2023-03-23T04:25:57;6.55;;;2.15;;
64799;SDS011;51233;51.982;4.594;2023-03-23T04:28:57;5.45;;;1.90;;
64799;SDS011;51233;51.982;4.594;2023-03-23T04:32:00;7.70;;;1.73;;
64799;SDS011;51233;51.982;4.594;2023-03-23T04:35:01;5.57;;;2.20;;
64799;SDS011;51233;51.982;4.594;2023-03-23T04:38:01;9.80;;;2.70;;
64799;SDS011;51233;51.982;4.594;2023-03-23T04:41:02;8.50;;;2.30;;
64799;SDS011;51233;51.982;4.594;2023-03-23T04:44:02;9.98;;;2.53;;
64799;SDS011;51233;51.982;4.594;2023-03-23T04:47:04;8.48;;;2.53;;
64799;SDS011;51233;51.982;4.594;2023-03-23T04:50:11;6.60;;;2.10;;
64799;SDS011;51233;51.982;4.594;2023-03-23T04:53:12;9.77;;;2.80;;
64799;SDS011;51233;51.982;4.594;2023-03-23T04:56:13;5.47;;;2.60;;
64799;SDS011;51233;51.982;4.594;2023-03-23T04:59:31;5.95;;;2.03;;
64799;SDS011;51233;51.982;4.594;2023-03-23T05:02:37;7.82;;;2.53;;
64799;SDS011;51233;51.982;4.594;2023-03-23T05:05:39;13.20;;;2.72;;
64799;SDS011;51233;51.982;4.594;2023-03-23T05:08:40;8.75;;;2.67;;
64799;SDS011;51233;51.982;4.594;2023-03-23T05:11:40;11.13;;;2.40;;
64799;SDS011;51233;51.982;4.594;2023-03-23T05:14:41;8.90;;;2.40;;
64799;SDS011;51233;51.982;4.594;2023-03-23T05:17:42;7.55;;;2.10;;
64799;SDS011;51233;51.982;4.594;2023-03-23T05:26:47;7.15;;;1.88;;
64799;SDS011;51233;51.982;4.594;2023-03-23T05:29:48;10.30;;;2.37;;
64799;SDS011;51233;51.982;4.594;2023-03-23T05:32:48;10.85;;;2.30;;
64799;SDS011;51233;51.982;4.594;2023-03-23T05:35:51;14.00;;;2.85;;
64799;SDS011;51233;51.982;4.594;2023-03-23T05:38:51;12.13;;;2.92;;
64799;SDS011;51233;51.982;4.594;2023-03-23T05:41:52;10.05;;;2.75;;
64799;SDS011;51233;51.982;4.594;2023-03-23T05:44:52;8.93;;;2.60;;
64799;SDS011;51233;51.982;4.594;2023-03-23T05:47:53;9.23;;;1.95;;
64799;SDS011;51233;51.982;4.594;2023-03-23T05:50:53;8.65;;;2.72;;
64799;SDS011;51233;51.982;4.594;2023-03-23T05:53:56;8.13;;;2.20;;
64799;SDS011;51233;51.982;4.594;2023-03-23T05:56:56;8.65;;;2.97;;
64799;SDS011;51233;51.982;4.594;2023-03-23T05:59:57;7.80;;;2.57;;
64799;SDS011;51233;51.982;4.594;2023-03-23T06:02:58;11.85;;;2.80;;
64799;SDS011;51233;51.982;4.594;2023-03-23T06:05:58;7.70;;;2.40;;
64799;SDS011;51233;51.982;4.594;2023-03-23T06:08:58;7.78;;;2.45;;
64799;SDS011;51233;51.982;4.594;2023-03-23T06:11:58;5.77;;;1.73;;
64799;SDS011;51233;51.982;4.594;2023-03-23T06:14:59;5.03;;;1.87;;
64799;SDS011;51233;51.982;4.594;2023-03-23T06:17:59;9.15;;;2.75;;
64799;SDS011;51233;51.982;4.594;2023-03-23T06:21:00;11.65;;;3.38;;
64799;SDS011;51233;51.982;4.594;2023-03-23T06:24:00;8.55;;;2.83;;
64799;SDS011;51233;51.982;4.594;2023-03-23T06:27:07;12.05;;;2.72;;
64799;SDS011;51233;51.982;4.594;2023-03-23T06:30:09;14.18;;;3.17;;
64799;SDS011;51233;51.982;4.594;2023-03-23T06:33:09;8.10;;;2.58;;
64799;SDS011;51233;51.982;4.594;2023-03-23T06:36:11;11.90;;;3.40;;
64799;SDS011;51233;51.982;4.594;2023-03-23T06:39:17;9.10;;;2.92;;
64799;SDS011;51233;51.982;4.594;2023-03-23T06:42:17;12.30;;;3.60;;
64799;SDS011;51233;51.982;4.594;2023-03-23T06:45:18;10.70;;;3.50;;
64799;SDS011;51233;51.982;4.594;2023-03-23T06:48:19;9.43;;;3.30;;
64799;SDS011;51233;51.982;4.594;2023-03-23T06:51:20;12.40;;;3.33;;
64799;SDS011;51233;51.982;4.594;2023-03-23T06:54:20;9.07;;;2.75;;
64799;SDS011;51233;51.982;4.594;2023-03-23T06:57:20;11.60;;;2.72;;
64799;SDS011;51233;51.982;4.594;2023-03-23T07:00:21;12.50;;;2.63;;
64799;SDS011;51233;51.982;4.594;2023-03-23T07:03:21;9.63;;;2.53;;
64799;SDS011;51233;51.982;4.594;2023-03-23T07:06:21;11.27;;;2.53;;
64799;SDS011;51233;51.982;4.594;2023-03-23T07:09:21;11.23;;;3.47;;
64799;SDS011;51233;51.982;4.594;2023-03-23T07:12:22;12.48;;;3.00;;
64799;SDS011;51233;51.982;4.594;2023-03-23T07:15:22;12.07;;;3.28;;
64799;SDS011;51233;51.982;4.594;2023-03-23T07:18:24;10.27;;;2.70;;
64799;SDS011;51233;51.982;4.594;2023-03-23T07:21:27;11.23;;;2.60;;
64799;SDS011;51233;51.982;4.594;2023-03-23T07:24:27;14.52;;;3.22;;
64799;SDS011;51233;51.982;4.594;2023-03-23T07:27:27;8.50;;;2.63;;
64799;SDS011;51233;51.982;4.594;2023-03-23T07:30:30;11.30;;;3.33;;
64799;SDS011;51233;51.982;4.594;2023-03-23T07:33:30;16.42;;;2.92;;
64799;SDS011;51233;51.982;4.594;2023-03-23T07:36:31;8.18;;;2.63;;
64799;SDS011;51233;51.982;4.594;2023-03-23T07:39:31;8.93;;;2.60;;
64799;SDS011;51233;51.982;4.594;2023-03-23T07:42:36;9.87;;;2.60;;
64799;SDS011;51233;51.982;4.594;2023-03-23T07:45:36;10.60;;;2.78;;
64799;SDS011;51233;51.982;4.594;2023-03-23T07:48:36;5.80;;;2.10;;
64799;SDS011;51233;51.982;4.594;2023-03-23T07:51:37;8.25;;;2.50;;
64799;SDS011;51233;51.982;4.594;2023-03-23T07:54:40;6.95;;;2.50;;
64799;SDS011;51233;51.982;4.594;2023-03-23T07:57:41;9.40;;;2.35;;
64799;SDS011;51233;51.982;4.594;2023-03-23T08:00:41;12.00;;;2.50;;
64799;SDS011;51233;51.982;4.594;2023-03-23T08:03:42;10.17;;;2.57;;
64799;SDS011;51233;51.982;4.594;2023-03-23T08:06:42;8.55;;;2.42;;
64799;SDS011;51233;51.982;4.594;2023-03-23T08:09:42;8.00;;;2.45;;
64799;SDS011;51233;51.982;4.594;2023-03-23T08:12:43;7.70;;;2.45;;
64799;SDS011;51233;51.982;4.594;2023-03-23T08:15:44;8.37;;;2.50;;
64799;SDS011;51233;51.982;4.594;2023-03-23T08:18:44;10.20;;;3.05;;
64799;SDS011;51233;51.982;4.594;2023-03-23T08:21:45;9.25;;;2.30;;
64799;SDS011;51233;51.982;4.594;2023-03-23T08:24:45;6.93;;;2.20;;
64799;SDS011;51233;51.982;4.594;2023-03-23T08:27:45;7.72;;;2.53;;
64799;SDS011;51233;51.982;4.594;2023-03-23T08:30:45;8.07;;;2.50;;
64799;SDS011;51233;51.982;4.594;2023-03-23T08:33:46;8.57;;;2.43;;
64799;SDS011;51233;51.982;4.594;2023-03-23T08:36:47;11.93;;;2.88;;
64799;SDS011;51233;51.982;4.594;2023-03-23T08:39:50;8.53;;;2.90;;
64799;SDS011;51233;51.982;4.594;2023-03-23T08:42:52;10.52;;;2.80;;
64799;SDS011;51233;51.982;4.594;2023-03-23T08:45:55;14.13;;;3.60;;
64799;SDS011;51233;51.982;4.594;2023-03-23T08:48:55;14.40;;;3.83;;
64799;SDS011;51233;51.982;4.594;2023-03-23T08:51:55;16.05;;;3.40;;
64799;SDS011;51233;51.982;4.594;2023-03-23T08:54:55;17.57;;;4.40;;
64799;SDS011;51233;51.982;4.594;2023-03-23T08:57:56;16.38;;;4.18;;
64799;SDS011;51233;51.982;4.594;2023-03-23T09:00:57;16.55;;;3.13;;
64799;SDS011;51233;51.982;4.594;2023-03-23T09:03:58;14.93;;;3.50;;
64799;SDS011;51233;51.982;4.594;2023-03-23T09:06:58;15.20;;;3.33;;
64799;SDS011;51233;51.982;4.594;2023-03-23T09:09:58;13.37;;;3.53;;
64799;SDS011;51233;51.982;4.594;2023-03-23T09:12:59;13.56;;;3.02;;
64799;SDS011;51233;51.982;4.594;2023-03-23T09:15:59;14.27;;;2.80;;
64799;SDS011;51233;51.982;4.594;2023-03-23T09:18:59;12.90;;;2.92;;
64799;SDS011;51233;51.982;4.594;2023-03-23T09:22:03;17.08;;;3.78;;
64799;SDS011;51233;51.982;4.594;2023-03-23T09:25:04;14.85;;;3.25;;
64799;SDS011;51233;51.982;4.594;2023-03-23T09:28:04;15.70;;;3.80;;
64799;SDS011;51233;51.982;4.594;2023-03-23T09:31:04;12.73;;;3.67;;
64799;SDS011;51233;51.982;4.594;2023-03-23T09:34:05;13.83;;;3.40;;
64799;SDS011;51233;51.982;4.594;2023-03-23T09:37:09;16.05;;;3.67;;
64799;SDS011;51233;51.982;4.594;2023-03-23T09:40:12;16.30;;;3.72;;
64799;SDS011;51233;51.982;4.594;2023-03-23T09:43:20;13.82;;;4.00;;
64799;SDS011;51233;51.982;4.594;2023-03-23T09:49:36;14.23;;;3.17;;
64799;SDS011;51233;51.982;4.594;2023-03-23T09:55:42;13.52;;;3.25;;
64799;SDS011;51233;51.982;4.594;2023-03-23T10:02:11;12.50;;;3.05;;
64799;SDS011;51233;51.982;4.594;2023-03-23T10:05:25;10.07;;;3.03;;
64799;SDS011;51233;51.982;4.594;2023-03-23T10:08:27;13.75;;;3.10;;
64799;SDS011;51233;51.982;4.594;2023-03-23T10:14:52;16.95;;;3.25;;
64799;SDS011;51233;51.982;4.594;2023-03-23T10:18:02;19.67;;;4.53;;
64799;SDS011;51233;51.982;4.594;2023-03-23T10:21:02;14.13;;;3.78;;
64799;SDS011;51233;51.982;4.594;2023-03-23T10:24:04;19.27;;;4.43;;
64799;SDS011;51233;51.982;4.594;2023-03-23T10:30:25;18.92;;;4.35;;
64799;SDS011;51233;51.982;4.594;2023-03-23T10:33:30;19.25;;;4.65;;
64799;SDS011;51233;51.982;4.594;2023-03-23T10:36:35;19.13;;;4.05;;
64799;SDS011;51233;51.982;4.594;2023-03-23T10:39:43;16.42;;;4.13;;
64799;SDS011;51233;51.982;4.594;2023-03-23T10:42:45;14.45;;;3.60;;
64799;SDS011;51233;51.982;4.594;2023-03-23T10:45:45;24.57;;;4.47;;
64799;SDS011;51233;51.982;4.594;2023-03-23T10:48:49;16.30;;;4.10;;
64799;SDS011;51233;51.982;4.594;2023-03-23T10:51:56;17.42;;;4.28;;
64799;SDS011;51233;51.982;4.594;2023-03-23T10:55:00;14.00;;;3.72;;
64799;SDS011;51233;51.982;4.594;2023-03-23T10:58:06;18.25;;;4.18;;
64799;SDS011;51233;51.982;4.594;2023-03-23T11:01:10;20.92;;;5.07;;
64799;SDS011;51233;51.982;4.594;2023-03-23T11:04:12;17.02;;;5.28;;
64799;SDS011;51233;51.982;4.594;2023-03-23T11:07:19;11.00;;;3.08;;
64799;SDS011;51233;51.982;4.594;2023-03-23T11:10:36;16.65;;;4.05;;
64799;SDS011;51233;51.982;4.594;2023-03-23T11:13:39;18.80;;;4.63;;
64799;SDS011;51233;51.982;4.594;2023-03-23T11:16:50;14.27;;;3.58;;
64799;SDS011;51233;51.982;4.594;2023-03-23T11:19:51;13.52;;;3.85;;
64799;SDS011;51233;51.982;4.594;2023-03-23T11:22:54;11.07;;;3.03;;
64799;SDS011;51233;51.982;4.594;2023-03-23T11:26:08;13.80;;;4.40;;
64799;SDS011;51233;51.982;4.594;2023-03-23T11:29:13;16.50;;;3.88;;
64799;SDS011;51233;51.982;4.594;2023-03-23T11:32:14;13.48;;;3.70;;
64799;SDS011;51233;51.982;4.594;2023-03-23T11:35:17;16.23;;;3.95;;
64799;SDS011;51233;51.982;4.594;2023-03-23T11:38:20;12.85;;;3.58;;
64799;SDS011;51233;51.982;4.594;2023-03-23T11:41:21;13.63;;;3.70;;
64799;SDS011;51233;51.982;4.594;2023-03-23T11:44:22;12.00;;;3.20;;
64799;SDS011;51233;51.982;4.594;2023-03-23T11:47:26;12.40;;;3.63;;
64799;SDS011;51233;51.982;4.594;2023-03-23T11:56:46;7.88;;;2.25;;
64799;SDS011;51233;51.982;4.594;2023-03-23T11:59:46;12.70;;;3.33;;
64799;SDS011;51233;51.982;4.594;2023-03-23T12:06:30;10.02;;;2.80;;
64799;SDS011;51233;51.982;4.594;2023-03-23T12:16:01;10.00;;;3.15;;
64799;SDS011;51233;51.982;4.594;2023-03-23T12:31:57;8.75;;;3.00;;
64799;SDS011;51233;51.982;4.594;2023-03-23T12:38:34;11.35;;;3.15;;
64799;SDS011;51233;51.982;4.594;2023-03-23T12:44:47;11.33;;;2.90;;
64799;SDS011;51233;51.982;4.594;2023-03-23T12:54:16;12.50;;;3.60;;
64799;SDS011;51233;51.982;4.594;2023-03-23T12:57:42;10.40;;;3.33;;
64799;SDS011;51233;51.982;4.594;2023-03-23T13:00:52;11.50;;;2.67;;
64799;SDS011;51233;51.982;4.594;2023-03-23T13:03:55;7.60;;;2.33;;
64799;SDS011;51233;51.982;4.594;2023-03-23T13:06:57;9.23;;;2.63;;
64799;SDS011;51233;51.982;4.594;2023-03-23T13:10:02;9.45;;;3.00;;
64799;SDS011;51233;51.982;4.594;2023-03-23T13:13:04;10.43;;;2.78;;
64799;SDS011;51233;51.982;4.594;2023-03-23T13:16:07;12.60;;;3.20;;
64799;SDS011;51233;51.982;4.594;2023-03-23T13:19:11;8.35;;;2.25;;
64799;SDS011;51233;51.982;4.594;2023-03-23T13:22:15;14.68;;;3.53;;
64799;SDS011;51233;51.982;4.594;2023-03-23T13:25:22;12.27;;;3.13;;
64799;SDS011;51233;51.982;4.594;2023-03-23T13:28:34;13.75;;;3.17;;
64799;SDS011;51233;51.982;4.594;2023-03-23T13:31:36;21.45;;;4.38;;
64799;SDS011;51233;51.982;4.594;2023-03-23T13:34:37;11.57;;;2.97;;
64799;SDS011;51233;51.982;4.594;2023-03-23T13:37:46;10.48;;;2.95;;
64799;SDS011;51233;51.982;4.594;2023-03-23T13:40:46;10.05;;;3.25;;
64799;SDS011;51233;51.982;4.594;2023-03-23T13:43:47;12.50;;;3.77;;
64799;SDS011;51233;51.982;4.594;2023-03-23T13:46:55;17.47;;;3.87;;
64799;SDS011;51233;51.982;4.594;2023-03-23T13:50:00;16.52;;;3.78;;
64799;SDS011;51233;51.982;4.594;2023-03-23T13:53:01;13.68;;;3.50;;
64799;SDS011;51233;51.982;4.594;2023-03-23T13:56:19;17.67;;;3.53;;
64799;SDS011;51233;51.982;4.594;2023-03-23T14:02:28;8.75;;;2.90;;
64799;SDS011;51233;51.982;4.594;2023-03-23T14:11:30;14.70;;;3.58;;
64799;SDS011;51233;51.982;4.594;2023-03-23T14:14:43;12.43;;;3.47;;
64799;SDS011;51233;51.982;4.594;2023-03-23T14:17:50;15.23;;;3.58;;
64799;SDS011;51233;51.982;4.594;2023-03-23T14:20:50;13.50;;;3.70;;
64799;SDS011;51233;51.982;4.594;2023-03-23T14:23:51;9.88;;;2.80;;
64799;SDS011;51233;51.982;4.594;2023-03-23T14:26:52;10.97;;;2.83;;
64799;SDS011;51233;51.982;4.594;2023-03-23T14:30:06;7.70;;;2.70;;
64799;SDS011;51233;51.982;4.594;2023-03-23T14:33:06;10.35;;;3.40;;
64799;SDS011;51233;51.982;4.594;2023-03-23T14:36:08;9.98;;;2.58;;
64799;SDS011;51233;51.982;4.594;2023-03-23T14:42:16;9.15;;;3.20;;
64799;SDS011;51233;51.982;4.594;2023-03-23T14:45:17;13.05;;;3.70;;
64799;SDS011;51233;51.982;4.594;2023-03-23T14:48:21;9.98;;;2.78;;
64799;SDS011;51233;51.982;4.594;2023-03-23T14:51:21;10.20;;;2.77;;
64799;SDS011;51233;51.982;4.594;2023-03-23T14:54:23;12.57;;;3.43;;
64799;SDS011;51233;51.982;4.594;2023-03-23T15:00:25;16.60;;;3.60;;
64799;SDS011;51233;51.982;4.594;2023-03-23T15:03:31;14.27;;;3.60;;
64799;SDS011;51233;51.982;4.594;2023-03-23T15:06:33;11.50;;;3.15;;
64799;SDS011;51233;51.982;4.594;2023-03-23T15:09:38;10.02;;;3.38;;
64799;SDS011;51233;51.982;4.594;2023-03-23T15:12:39;11.65;;;3.00;;
64799;SDS011;51233;51.982;4.594;2023-03-23T15:15:42;8.35;;;2.60;;
64799;SDS011;51233;51.982;4.594;2023-03-23T15:18:47;13.80;;;3.27;;
64799;SDS011;51233;51.982;4.594;2023-03-23T15:21:53;13.77;;;3.00;;
64799;SDS011;51233;51.982;4.594;2023-03-23T15:31:04;11.63;;;2.90;;
64799;SDS011;51233;51.982;4.594;2023-03-23T15:34:05;10.52;;;3.30;;
64799;SDS011;51233;51.982;4.594;2023-03-23T15:40:37;11.27;;;2.88;;
64799;SDS011;51233;51.982;4.594;2023-03-23T15:43:54;10.43;;;3.58;;
64799;SDS011;51233;51.982;4.594;2023-03-23T15:47:12;14.02;;;3.65;;
64799;SDS011;51233;51.982;4.594;2023-03-23T15:53:19;14.45;;;4.15;;
64799;SDS011;51233;51.982;4.594;2023-03-23T15:56:20;16.05;;;3.60;;
64799;SDS011;51233;51.982;4.594;2023-03-23T15:59:20;11.87;;;3.20;;
64799;SDS011;51233;51.982;4.594;2023-03-23T16:02:24;13.45;;;3.55;;
64799;SDS011;51233;51.982;4.594;2023-03-23T16:05:24;20.02;;;4.10;;
64799;SDS011;51233;51.982;4.594;2023-03-23T16:08:25;7.00;;;2.50;;
64799;SDS011;51233;51.982;4.594;2023-03-23T16:11:26;13.63;;;3.47;;
64799;SDS011;51233;51.982;4.594;2023-03-23T16:14:29;14.05;;;3.45;;
64799;SDS011;51233;51.982;4.594;2023-03-23T16:17:30;14.32;;;3.95;;
64799;SDS011;51233;51.982;4.594;2023-03-23T16:20:30;16.55;;;3.67;;
64799;SDS011;51233;51.982;4.594;2023-03-23T16:23:32;16.42;;;4.05;;
64799;SDS011;51233;51.982;4.594;2023-03-23T16:26:32;13.80;;;4.03;;
64799;SDS011;51233;51.982;4.594;2023-03-23T16:29:32;16.70;;;3.80;;
64799;SDS011;51233;51.982;4.594;2023-03-23T16:32:35;11.07;;;2.92;;
64799;SDS011;51233;51.982;4.594;2023-03-23T16:35:35;18.00;;;4.15;;
64799;SDS011;51233;51.982;4.594;2023-03-23T16:38:39;18.95;;;4.53;;
64799;SDS011;51233;51.982;4.594;2023-03-23T16:41:39;16.23;;;3.63;;
64799;SDS011;51233;51.982;4.594;2023-03-23T16:44:42;18.77;;;4.23;;
64799;SDS011;51233;51.982;4.594;2023-03-23T16:47:43;17.27;;;3.40;;
64799;SDS011;51233;51.982;4.594;2023-03-23T16:50:43;12.03;;;2.80;;
64799;SDS011;51233;51.982;4.594;2023-03-23T16:53:44;11.73;;;3.60;;
64799;SDS011;51233;51.982;4.594;2023-03-23T16:56:46;13.80;;;3.80;;
64799;SDS011;51233;51.982;4.594;2023-03-23T16:59:50;13.80;;;3.40;;
64799;SDS011;51233;51.982;4.594;2023-03-23T17:02:52;16.55;;;3.40;;
64799;SDS011;51233;51.982;4.594;2023-03-23T17:05:52;14.48;;;3.72;;
64799;SDS011;51233;51.982;4.594;2023-03-23T17:08:53;18.77;;;4.13;;
64799;SDS011;51233;51.982;4.594;2023-03-23T17:11:53;15.02;;;4.25;;
64799;SDS011;51233;51.982;4.594;2023-03-23T17:14:53;12.77;;;3.63;;
64799;SDS011;51233;51.982;4.594;2023-03-23T17:17:54;12.83;;;2.90;;
64799;SDS011;51233;51.982;4.594;2023-03-23T17:20:54;11.33;;;3.43;;
64799;SDS011;51233;51.982;4.594;2023-03-23T17:23:54;7.23;;;2.43;;
64799;SDS011;51233;51.982;4.594;2023-03-23T17:26:55;7.90;;;2.70;;
64799;SDS011;51233;51.982;4.594;2023-03-23T17:29:55;8.90;;;2.67;;
64799;SDS011;51233;51.982;4.594;2023-03-23T17:32:55;13.77;;;3.13;;
64799;SDS011;51233;51.982;4.594;2023-03-23T17:35:55;9.15;;;3.63;;
64799;SDS011;51233;51.982;4.594;2023-03-23T17:38:55;13.57;;;3.53;;
64799;SDS011;51233;51.982;4.594;2023-03-23T17:41:59;8.90;;;2.70;;
64799;SDS011;51233;51.982;4.594;2023-03-23T17:44:59;10.63;;;3.13;;
64799;SDS011;51233;51.982;4.594;2023-03-23T17:47:59;9.60;;;3.03;;
64799;SDS011;51233;51.982;4.594;2023-03-23T17:51:00;11.17;;;3.73;;
64799;SDS011;51233;51.982;4.594;2023-03-23T17:54:01;13.65;;;3.13;;
64799;SDS011;51233;51.982;4.594;2023-03-23T17:57:01;8.35;;;2.60;;
64799;SDS011;51233;51.982;4.594;2023-03-23T18:00:03;11.18;;;2.78;;
64799;SDS011;51233;51.982;4.594;2023-03-23T18:03:03;11.13;;;3.60;;
64799;SDS011;51233;51.982;4.594;2023-03-23T18:06:04;9.52;;;3.47;;
64799;SDS011;51233;51.982;4.594;2023-03-23T18:09:06;10.18;;;3.00;;
64799;SDS011;51233;51.982;4.594;2023-03-23T18:12:06;11.43;;;3.17;;
64799;SDS011;51233;51.982;4.594;2023-03-23T18:15:06;12.00;;;3.50;;
64799;SDS011;51233;51.982;4.594;2023-03-23T18:18:10;11.85;;;3.40;;
64799;SDS011;51233;51.982;4.594;2023-03-23T18:21:10;9.73;;;2.63;;
64799;SDS011;51233;51.982;4.594;2023-03-23T18:24:10;14.40;;;3.13;;
64799;SDS011;51233;51.982;4.594;2023-03-23T18:27:10;6.57;;;2.10;;
64799;SDS011;51233;51.982;4.594;2023-03-23T18:30:10;9.70;;;2.60;;
64799;SDS011;51233;51.982;4.594;2023-03-23T18:33:11;11.37;;;2.93;;
64799;SDS011;51233;51.982;4.594;2023-03-23T18:36:15;7.50;;;2.92;;
64799;SDS011;51233;51.982;4.594;2023-03-23T18:39:18;6.22;;;2.10;;
64799;SDS011;51233;51.982;4.594;2023-03-23T18:42:18;10.77;;;2.80;;
64799;SDS011;51233;51.982;4.594;2023-03-23T18:45:18;9.83;;;2.90;;
64799;SDS011;51233;51.982;4.594;2023-03-23T18:48:19;9.27;;;2.70;;
64799;SDS011;51233;51.982;4.594;2023-03-23T18:51:25;8.13;;;2.30;;
64799;SDS011;51233;51.982;4.594;2023-03-23T18:54:26;14.82;;;2.95;;
64799;SDS011;51233;51.982;4.594;2023-03-23T18:57:27;9.60;;;3.03;;
64799;SDS011;51233;51.982;4.594;2023-03-23T19:00:27;10.75;;;3.05;;
64799;SDS011;51233;51.982;4.594;2023-03-23T19:03:28;9.65;;;3.25;;
64799;SDS011;51233;51.982;4.594;2023-03-23T19:06:31;11.85;;;3.25;;
64799;SDS011;51233;51.982;4.594;2023-03-23T19:09:32;12.70;;;3.30;;
64799;SDS011;51233;51.982;4.594;2023-03-23T19:12:33;10.85;;;2.67;;
64799;SDS011;51233;51.982;4.594;2023-03-23T19:15:36;10.35;;;2.85;;
64799;SDS011;51233;51.982;4.594;2023-03-23T19:18:36;9.80;;;3.35;;
64799;SDS011;51233;51.982;4.594;2023-03-23T19:21:37;11.13;;;3.27;;
64799;SDS011;51233;51.982;4.594;2023-03-23T19:24:38;15.70;;;5.05;;
64799;SDS011;51233;51.982;4.594;2023-03-23T19:27:38;9.73;;;3.20;;
64799;SDS011;51233;51.982;4.594;2023-03-23T19:30:42;16.00;;;3.90;;
64799;SDS011;51233;51.982;4.594;2023-03-23T19:33:43;10.30;;;3.45;;
64799;SDS011;51233;51.982;4.594;2023-03-23T19:36:44;10.63;;;4.33;;
64799;SDS011;51233;51.982;4.594;2023-03-23T19:39:45;13.18;;;3.55;;
64799;SDS011;51233;51.982;4.594;2023-03-23T19:42:46;12.20;;;4.20;;
64799;SDS011;51233;51.982;4.594;2023-03-23T19:45:46;15.77;;;4.20;;
64799;SDS011;51233;51.982;4.594;2023-03-23T19:48:46;13.77;;;4.70;;
64799;SDS011;51233;51.982;4.594;2023-03-23T19:51:46;15.13;;;5.03;;
64799;SDS011;51233;51.982;4.594;2023-03-23T19:54:47;15.67;;;5.80;;
64799;SDS011;51233;51.982;4.594;2023-03-23T19:57:47;13.68;;;4.80;;
64799;SDS011;51233;51.982;4.594;2023-03-23T20:00:49;14.43;;;5.10;;
64799;SDS011;51233;51.982;4.594;2023-03-23T20:03:49;11.77;;;4.88;;
64799;SDS011;51233;51.982;4.594;2023-03-23T20:06:50;12.37;;;4.90;;